Time;durP1;ratioP1;P1;durP2;ratioP2;P2;SDS_P1;SDS_P2;PMS_P1;PMS_P2;Temp;Humidity;BMP_temperature;BMP_pressure;BME280_temperature;BME280_humidity;BME280_pressure;Samples;Min_cycle;Max_cycle;Signal;HPM_P1;HPM_P2
2024/02/27 00:00:22;;;;;;;;;;;;;;;19.93;34.78;100721.56;4131686;28;19926;-59
2024/02/27 00:02:24;;;;;;;;;;;;;;;19.94;34.41;100723.28;4131450;28;19957;-58
2024/02/27 00:04:25;;;;;;;;;;;;;;;19.93;34.79;100723.41;4131768;28;19925;-59
2024/02/27 00:06:27;;;;;;;;;;;;;;;19.93;34.52;100729.59;4131413;28;19926;-59
2024/02/27 00:08:29;;;;;;;;;;;;;;;19.93;34.50;100739.41;4131732;28;19933;-60
2024/02/27 00:10:31;;;;;;;;;;;;;;;19.95;34.88;100754.34;4131804;28;20044;-60
2024/02/27 00:12:32;;;;;;;;;;;;;;;19.99;34.90;100738.09;4131839;28;19926;-61
2024/02/27 00:14:34;;;;;;;;;;;;;;;19.89;34.45;100745.94;4131712;28;19964;-60
2024/02/27 00:16:36;;;;;;;;;;;;;;;19.94;34.65;100749.97;4114444;28;19931;-60
2024/02/27 00:18:37;;;;;;;;;;;;;;;19.99;34.78;100764.78;4131671;28;19933;-60
2024/02/27 00:20:39;;;;;;;;;;;;;;;19.97;34.49;100754.22;4131433;28;19936;-60
2024/02/27 00:22:41;;;;;;;;;;;;;;;19.99;34.72;100756.78;4131521;28;19932;-60
2024/02/27 00:24:42;;;;;;;;;;;;;;;20.01;34.49;100765.53;4131647;28;19926;-60
2024/02/27 00:26:44;;;;;;;;;;;;;;;20.01;34.75;100773.53;4131565;28;19930;-60
2024/02/27 00:28:46;;;;;;;;;;;;;;;20.03;34.60;100782.28;4131835;28;20290;-60
2024/02/27 00:30:47;;;;;;;;;;;;;;;20.03;34.61;100780.47;4132173;28;20363;-60
2024/02/27 00:32:52;;;;;;;;;;;;;;;20.00;34.61;100782.50;4131647;28;20427;-60
2024/02/27 00:34:54;;;;;;;;;;;;;;;19.98;34.73;100789.78;4131353;28;19980;-60
2024/02/27 00:36:55;;;;;;;;;;;;;;;20.00;34.55;100795.84;4131019;28;20024;-60
2024/02/27 00:38:57;;;;;;;;;;;;;;;20.01;34.72;100800.22;4131510;28;19980;-60
2024/02/27 00:41:01;;;;;;;;;;;;;;;20.02;34.65;100796.59;4131279;28;19930;-60
2024/02/27 00:43:02;;;;;;;;;;;;;;;20.03;34.48;100796.47;4131428;28;20038;-60
2024/02/27 00:45:04;;;;;;;;;;;;;;;20.04;34.55;100800.84;4131444;28;19926;-60
2024/02/27 00:47:07;;;;;;;;;;;;;;;20.04;34.38;100818.72;4131708;28;19926;-60
2024/02/27 00:49:09;;;;;;;;;;;;;;;19.85;34.23;100806.69;4131288;28;19937;-59
2024/02/27 00:51:11;;;;;;;;;;;;;;;19.72;34.67;100811.19;4131103;28;19926;-61
2024/02/27 00:53:13;;;;;;;;;;;;;;;19.84;34.64;100822.84;4134448;28;20072;-61
2024/02/27 00:55:15;;;;;;;;;;;;;;;19.90;34.46;100814.38;4117362;28;19926;-61
2024/02/27 00:57:17;;;;;;;;;;;;;;;19.91;34.35;100814.25;4134453;28;19926;-61
2024/02/27 00:59:19;;;;;;;;;;;;;;;19.84;34.51;100809.50;4134385;28;19929;-61
2024/02/27 01:01:20;;;;;;;;;;;;;;;19.95;34.48;100830.88;4134173;28;19995;-60
2024/02/27 01:03:22;;;;;;;;;;;;;;;19.94;34.27;100832.72;4134266;28;19925;-61
2024/02/27 01:05:23;;;;;;;;;;;;;;;19.96;34.45;100829.94;4133951;28;19972;-61
2024/02/27 01:07:25;;;;;;;;;;;;;;;19.95;34.63;100834.44;4134082;28;19925;-61
2024/02/27 01:09:26;;;;;;;;;;;;;;;19.88;34.68;100830.50;4134101;28;19996;-62
2024/02/27 01:11:28;;;;;;;;;;;;;;;19.92;34.66;100837.31;4134137;28;20323;-62
2024/02/27 01:13:30;;;;;;;;;;;;;;;19.95;34.39;100845.09;4134251;28;19930;-61
2024/02/27 01:15:31;;;;;;;;;;;;;;;19.97;34.52;100839.66;4134188;28;19925;-61
2024/02/27 01:17:33;;;;;;;;;;;;;;;20.00;34.53;100847.44;4134245;28;19926;-62
2024/02/27 01:19:34;;;;;;;;;;;;;;;20.01;34.56;100849.13;4133837;28;19952;-61
2024/02/27 01:21:36;;;;;;;;;;;;;;;20.03;34.29;100847.22;4134340;28;20384;-62
2024/02/27 01:23:40;;;;;;;;;;;;;;;19.96;34.54;100856.63;4133688;28;19941;-61
2024/02/27 01:25:42;;;;;;;;;;;;;;;19.98;34.41;100853.84;4133860;28;19932;-61
2024/02/27 01:27:43;;;;;;;;;;;;;;;19.99;34.26;100859.09;4134144;28;19932;-61
2024/02/27 01:29:45;;;;;;;;;;;;;;;20.01;34.14;100853.63;4133966;28;19925;-61
2024/02/27 01:31:46;;;;;;;;;;;;;;;20.02;34.19;100848.16;4134137;28;20303;-61
2024/02/27 01:33:48;;;;;;;;;;;;;;;20.03;34.51;100852.53;4115649;28;20287;-61
2024/02/27 01:35:50;;;;;;;;;;;;;;;20.04;34.18;100853.41;4133490;28;20446;-60
2024/02/27 01:37:51;;;;;;;;;;;;;;;20.05;34.22;100847.09;4133611;28;19926;-61
2024/02/27 01:39:53;;;;;;;;;;;;;;;20.07;34.21;100869.19;4133908;28;20445;-61
2024/02/27 01:41:55;;;;;;;;;;;;;;;20.02;34.39;100860.69;4116460;28;19926;-61
2024/02/27 01:43:56;;;;;;;;;;;;;;;19.95;34.02;100865.59;4134011;28;19930;-61
2024/02/27 01:46:19;;;;;;;;;;;;;;;19.86;34.50;100861.78;4133719;28;19972;-60
2024/02/27 01:48:20;;;;;;;;;;;;;;;19.82;34.28;100870.09;4132136;28;19937;-59
2024/02/27 01:50:23;;;;;;;;;;;;;;;19.80;34.38;100875.53;4133724;28;19960;-60
2024/02/27 01:52:25;;;;;;;;;;;;;;;19.75;34.34;100873.19;4116345;28;19973;-61
2024/02/27 01:54:28;;;;;;;;;;;;;;;19.76;34.52;100882.91;4133440;28;19926;-58
2024/02/27 01:56:31;;;;;;;;;;;;;;;19.84;34.47;100885.06;4133547;28;20380;-58
2024/02/27 01:58:32;;;;;;;;;;;;;;;19.85;34.34;100896.59;4133682;28;19926;-59
2024/02/27 02:00:34;;;;;;;;;;;;;;;19.89;34.43;100892.72;4133397;28;20354;-60
2024/02/27 02:02:43;;;;;;;;;;;;;;;19.87;34.42;100898.19;4133055;28;19926;-59
2024/02/27 02:04:45;;;;;;;;;;;;;;;19.87;34.36;100895.53;4133060;28;19936;-60
2024/02/27 02:06:47;;;;;;;;;;;;;;;19.89;34.34;100890.94;4133503;28;19926;-60
2024/02/27 02:08:49;;;;;;;;;;;;;;;19.88;34.26;100894.56;4133446;28;19925;-59
2024/02/27 02:10:51;;;;;;;;;;;;;;;19.93;33.94;100896.91;4133117;28;19937;-60
2024/02/27 02:12:56;;;;;;;;;;;;;;;19.95;34.15;100906.50;4133234;28;19926;-60
2024/02/27 02:14:58;;;;;;;;;;;;;;;19.98;34.20;100904.56;4133272;28;19925;-59
2024/02/27 02:17:01;;;;;;;;;;;;;;;19.98;34.18;100916.09;4132931;28;19933;-59
2024/02/27 02:19:03;;;;;;;;;;;;;;;19.98;34.09;100902.75;4115858;28;19982;-59
2024/02/27 02:21:04;;;;;;;;;;;;;;;19.98;33.93;100910.78;4132991;28;20025;-59
2024/02/27 02:23:06;;;;;;;;;;;;;;;20.00;34.31;100907.97;4132982;28;20021;-59
2024/02/27 02:25:10;;;;;;;;;;;;;;;20.00;34.24;100902.63;4133088;28;19936;-60
2024/02/27 02:27:14;;;;;;;;;;;;;;;20.00;34.20;100907.97;4133256;28;19933;-59
2024/02/27 02:29:18;;;;;;;;;;;;;;;20.01;34.21;100925.72;4132872;28;19926;-60
2024/02/27 02:31:19;;;;;;;;;;;;;;;20.01;33.82;100923.03;4132766;28;19980;-59
2024/02/27 02:33:21;;;;;;;;;;;;;;;20.02;34.24;100922.06;4132827;28;19925;-59
2024/02/27 02:35:23;;;;;;;;;;;;;;;20.04;33.98;100917.50;4132613;28;20012;-59
2024/02/27 02:37:26;;;;;;;;;;;;;;;20.05;34.16;100922.72;4133036;28;20021;-59
2024/02/27 02:39:28;;;;;;;;;;;;;;;20.05;34.09;100925.38;4132825;28;20395;-60
2024/02/27 02:41:29;;;;;;;;;;;;;;;20.06;34.04;100926.22;4132724;28;19930;-60
2024/02/27 02:43:33;;;;;;;;;;;;;;;20.05;33.85;100928.06;4132640;28;19930;-59
2024/02/27 02:45:34;;;;;;;;;;;;;;;20.06;33.84;100918.22;4132364;28;19971;-60
2024/02/27 02:47:36;;;;;;;;;;;;;;;20.07;34.02;100933.28;4132793;28;20041;-60
2024/02/27 02:49:38;;;;;;;;;;;;;;;20.06;33.88;100929.75;4132595;28;19926;-60
2024/02/27 02:51:42;;;;;;;;;;;;;;;20.09;34.19;100934.03;4132530;28;19981;-60
2024/02/27 02:53:44;;;;;;;;;;;;;;;20.09;34.14;100934.84;4132740;28;19973;-60
2024/02/27 02:55:45;;;;;;;;;;;;;;;20.09;33.84;100934.84;4132553;28;20378;-60
2024/02/27 02:57:47;;;;;;;;;;;;;;;20.08;34.08;100924.31;4132853;28;19989;-60
2024/02/27 02:59:48;;;;;;;;;;;;;;;20.11;33.70;100937.44;4132729;28;20311;-60
2024/02/27 03:01:50;;;;;;;;;;;;;;;20.13;34.01;100948.84;4132278;28;19948;-60
2024/02/27 03:03:52;;;;;;;;;;;;;;;20.11;33.99;100943.63;4132312;28;19926;-60
2024/02/27 03:05:53;;;;;;;;;;;;;;;19.99;34.06;100952.53;4115217;28;19990;-60
2024/02/27 03:07:55;;;;;;;;;;;;;;;20.03;34.09;100953.16;4132582;28;19929;-60
2024/02/27 03:09:56;;;;;;;;;;;;;;;20.06;33.84;100956.47;4132357;28;20012;-61
2024/02/27 03:12:01;;;;;;;;;;;;;;;19.98;33.66;100957.94;4132348;28;20008;-60
2024/02/27 03:14:03;;;;;;;;;;;;;;;19.96;34.14;100944.72;4132300;28;19930;-60
2024/02/27 03:16:04;;;;;;;;;;;;;;;19.97;33.94;100962.44;4131184;28;20025;-60
2024/02/27 03:18:06;;;;;;;;;;;;;;;19.99;33.87;100960.53;4132107;28;20359;-60
2024/02/27 03:20:10;;;;;;;;;;;;;;;20.01;34.05;100971.94;4132153;28;19926;-60
2024/02/27 03:22:13;;;;;;;;;;;;;;;19.84;34.05;100956.28;4132184;28;19926;-60
2024/02/27 03:24:15;;;;;;;;;;;;;;;19.87;34.17;100977.44;4132116;28;19980;-61
2024/02/27 03:26:16;;;;;;;;;;;;;;;19.93;34.10;100971.66;4132282;28;19926;-60
2024/02/27 03:28:18;;;;;;;;;;;;;;;19.97;34.01;100964.28;4132111;28;19932;-61
2024/02/27 03:30:20;;;;;;;;;;;;;;;20.00;33.67;100970.25;4131874;28;19925;-60
2024/02/27 03:32:22;;;;;;;;;;;;;;;20.02;33.76;100978.16;4132133;28;19985;-60
2024/02/27 03:34:26;;;;;;;;;;;;;;;20.02;34.03;100980.81;4131812;28;19926;-60
2024/02/27 03:36:28;;;;;;;;;;;;;;;20.03;33.60;100974.50;4131950;28;20314;-60
2024/02/27 03:38:31;;;;;;;;;;;;;;;19.99;34.11;100989.03;4131579;28;19932;-60
2024/02/27 03:40:32;;;;;;;;;;;;;;;20.00;33.94;100982.72;4132017;28;19937;-61
2024/02/27 03:42:34;;;;;;;;;;;;;;;20.02;33.85;100986.16;4131882;28;20020;-60
2024/02/27 03:44:36;;;;;;;;;;;;;;;19.87;33.94;100993.44;4131529;28;19929;-61
2024/02/27 03:46:37;;;;;;;;;;;;;;;19.79;33.79;100993.94;4132046;28;19926;-61
2024/02/27 03:48:39;;;;;;;;;;;;;;;19.82;34.11;101001.72;4131981;28;20012;-60
2024/02/27 03:50:40;;;;;;;;;;;;;;;19.86;33.97;100989.91;4131836;28;20024;-61
2024/02/27 03:52:42;;;;;;;;;;;;;;;19.89;33.98;101000.38;4131912;28;19968;-60
2024/02/27 03:54:44;;;;;;;;;;;;;;;19.88;33.93;101012.00;4131707;28;19926;-60
2024/02/27 03:56:45;;;;;;;;;;;;;;;19.88;34.03;101012.00;4131823;28;19932;-61
2024/02/27 03:58:47;;;;;;;;;;;;;;;19.91;33.85;101006.44;4131393;28;19925;-60
2024/02/27 04:00:49;;;;;;;;;;;;;;;19.85;33.93;101024.72;4131436;28;19941;-60
2024/02/27 04:02:51;;;;;;;;;;;;;;;19.89;33.65;101034.22;4114380;28;19993;-61
2024/02/27 04:04:52;;;;;;;;;;;;;;;19.86;33.85;101015.75;4131609;28;19998;-60
2024/02/27 04:06:54;;;;;;;;;;;;;;;19.87;33.69;101022.81;4131605;28;20072;-60
2024/02/27 04:08:56;;;;;;;;;;;;;;;19.90;33.80;101036.78;4131813;28;19926;-60
2024/02/27 04:10:57;;;;;;;;;;;;;;;19.91;33.65;101029.63;4131722;28;19945;-60
2024/02/27 04:12:59;;;;;;;;;;;;;;;19.92;33.86;101032.19;4131411;28;19984;-61
2024/02/27 04:15:01;;;;;;;;;;;;;;;19.90;33.55;101034.13;4114449;28;19966;-60
2024/02/27 04:17:03;;;;;;;;;;;;;;;19.92;34.00;101036.66;4114479;28;19930;-60
2024/02/27 04:19:05;;;;;;;;;;;;;;;19.90;33.91;101031.44;4131592;28;20387;-60
2024/02/27 04:21:06;;;;;;;;;;;;;;;19.94;33.65;101037.44;4131526;28;19925;-59
2024/02/27 04:23:08;;;;;;;;;;;;;;;19.96;33.62;101038.16;4131735;28;19948;-59
2024/02/27 04:25:10;;;;;;;;;;;;;;;19.98;33.54;101032.69;4131238;28;19933;-60
2024/02/27 04:27:11;;;;;;;;;;;;;;;19.90;33.48;101034.13;4115914;28;19926;-59
2024/02/27 04:29:13;;;;;;;;;;;;;;;19.90;33.61;101039.47;4134926;28;20445;-60
2024/02/27 04:31:15;;;;;;;;;;;;;;;19.95;33.45;101039.13;4134851;28;19933;-61
2024/02/27 04:33:16;;;;;;;;;;;;;;;19.98;33.67;101030.03;4134935;28;19972;-60
2024/02/27 04:35:18;;;;;;;;;;;;;;;19.98;33.61;101030.03;4117196;28;19927;-60
2024/02/27 04:37:20;;;;;;;;;;;;;;;19.99;33.53;101031.75;4134754;28;19976;-60
2024/02/27 04:39:22;;;;;;;;;;;;;;;19.99;33.45;101034.41;4134819;28;19992;-60
2024/02/27 04:41:23;;;;;;;;;;;;;;;19.98;33.54;101041.56;4134645;28;19976;-60
2024/02/27 04:43:25;;;;;;;;;;;;;;;19.99;33.50;101042.41;4134299;28;19945;-60
2024/02/27 04:45:27;;;;;;;;;;;;;;;19.99;33.93;101042.41;4134646;28;20376;-62
2024/02/27 04:47:28;;;;;;;;;;;;;;;20.01;33.54;101056.53;4134459;28;19926;-61
2024/02/27 04:49:30;;;;;;;;;;;;;;;20.01;33.53;101052.03;4134580;28;19930;-61
2024/02/27 04:51:32;;;;;;;;;;;;;;;20.03;33.45;101070.63;4134626;28;19926;-61
2024/02/27 04:53:33;;;;;;;;;;;;;;;20.03;33.46;101068.81;4134533;28;19933;-60
2024/02/27 04:55:35;;;;;;;;;;;;;;;20.04;33.63;101065.19;4134268;28;19926;-61
2024/02/27 04:57:36;;;;;;;;;;;;;;;20.00;32.93;101081.50;4133996;28;19973;-61
2024/02/27 04:59:38;;;;;;;;;;;;;;;19.93;33.74;101065.91;4134556;28;20024;-61
2024/02/27 05:01:40;;;;;;;;;;;;;;;19.99;33.43;101082.47;4134508;28;19933;-61
2024/02/27 05:03:42;;;;;;;;;;;;;;;20.00;33.59;101085.06;4117375;28;19926;-61
2024/02/27 05:05:44;;;;;;;;;;;;;;;20.02;33.74;101085.78;4134219;28;19926;-61
2024/02/27 05:07:46;;;;;;;;;;;;;;;20.01;33.60;101084.06;4134553;28;20377;-62
2024/02/27 05:09:47;;;;;;;;;;;;;;;20.02;33.67;101091.13;4117113;28;19972;-61
2024/02/27 05:11:50;;;;;;;;;;;;;;;20.03;33.40;101092.81;4133953;28;19965;-61
2024/02/27 05:13:51;;;;;;;;;;;;;;;20.02;33.59;101093.78;4134435;28;19932;-61
2024/02/27 05:15:53;;;;;;;;;;;;;;;20.03;33.34;101092.00;4134031;28;20013;-61
2024/02/27 05:17:58;;;;;;;;;;;;;;;20.05;33.63;101096.25;4134156;28;19930;-61
2024/02/27 05:19:59;;;;;;;;;;;;;;;20.05;33.44;101101.59;4133872;28;19925;-60
2024/02/27 05:22:01;;;;;;;;;;;;;;;20.06;33.55;101116.66;4134067;28;19964;-61
2024/02/27 05:24:02;;;;;;;;;;;;;;;20.09;33.26;101107.56;4133967;28;19930;-61
2024/02/27 05:26:04;;;;;;;;;;;;;;;20.08;33.33;101106.69;4133586;28;19981;-61
2024/02/27 05:28:05;;;;;;;;;;;;;;;20.09;33.45;101107.56;4134026;28;19945;-61
2024/02/27 05:30:07;;;;;;;;;;;;;;;20.08;33.65;101113.88;4133804;28;19926;-61
2024/02/27 05:32:09;;;;;;;;;;;;;;;20.07;33.40;101113.03;4133937;28;20315;-61
2024/02/27 05:34:10;;;;;;;;;;;;;;;20.08;33.64;101117.38;4133730;28;19929;-61
2024/02/27 05:36:12;;;;;;;;;;;;;;;20.07;33.44;101113.03;4133972;28;20025;-61
2024/02/27 05:38:14;;;;;;;;;;;;;;;20.08;33.49;101121.88;4132893;28;19930;-61
2024/02/27 05:40:15;;;;;;;;;;;;;;;20.08;33.49;101121.88;4133381;28;19926;-60
2024/02/27 05:42:17;;;;;;;;;;;;;;;20.02;33.31;101130.31;4133850;28;19964;-61
2024/02/27 05:44:19;;;;;;;;;;;;;;;20.04;33.63;101131.91;4133473;28;19926;-61
2024/02/27 05:46:20;;;;;;;;;;;;;;;20.07;33.66;101130.84;4133472;28;19926;-61
2024/02/27 05:48:22;;;;;;;;;;;;;;;20.08;33.45;101137.91;4133869;28;20414;-61
2024/02/27 05:50:24;;;;;;;;;;;;;;;20.09;33.24;101139.63;4133332;28;19926;-61
2024/02/27 05:52:25;;;;;;;;;;;;;;;20.10;33.47;101150.19;4133547;28;19949;-61
2024/02/27 05:54:27;;;;;;;;;;;;;;;20.09;33.64;101153.81;4133279;28;20017;-61
2024/02/27 05:56:29;;;;;;;;;;;;;;;20.10;33.20;101154.69;4133229;28;19926;-61
2024/02/27 05:58:31;;;;;;;;;;;;;;;20.09;33.23;101156.47;4133537;28;20016;-61
2024/02/27 06:00:33;;;;;;;;;;;;;;;20.09;33.62;101156.47;4133416;28;19926;-61
2024/02/27 06:02:34;;;;;;;;;;;;;;;20.09;33.58;101172.50;4133386;28;19933;-61
2024/02/27 06:04:36;;;;;;;;;;;;;;;20.10;33.17;101173.38;4133545;28;19932;-61
2024/02/27 06:06:37;;;;;;;;;;;;;;;20.11;33.58;101180.44;4133406;28;19926;-60
2024/02/27 06:08:39;;;;;;;;;;;;;;;20.13;33.52;101180.31;4115928;28;19961;-61
2024/02/27 06:10:41;;;;;;;;;;;;;;;20.13;33.38;101178.50;4133471;28;20366;-61
2024/02/27 06:12:43;;;;;;;;;;;;;;;20.13;33.33;101183.84;4133377;28;19926;-61
2024/02/27 06:14:44;;;;;;;;;;;;;;;20.13;33.19;101181.16;4133355;28;19929;-60
2024/02/27 06:16:46;;;;;;;;;;;;;;;20.14;33.37;101185.53;4133413;28;19937;-61
2024/02/27 06:18:48;;;;;;;;;;;;;;;20.16;33.25;101188.09;4133293;28;19926;-60
2024/02/27 06:23:10;;;;;;;;;;;;;;;20.15;33.37;101195.28;4132763;28;19926;-61
2024/02/27 06:25:16;;;;;;;;;;;;;;;20.14;33.17;101195.38;4133011;28;19961;-61
2024/02/27 06:27:18;;;;;;;;;;;;;;;20.13;33.43;101194.50;4132860;28;19945;-60
2024/02/27 06:29:19;;;;;;;;;;;;;;;20.15;33.36;101207.78;4133129;28;20375;-61
2024/02/27 06:31:21;;;;;;;;;;;;;;;20.16;33.25;101201.44;4132921;28;19926;-61
2024/02/27 06:33:23;;;;;;;;;;;;;;;20.15;33.29;101205.13;4133051;28;20363;-61
2024/02/27 06:35:25;;;;;;;;;;;;;;;20.15;33.30;101213.97;4132716;28;20028;-60
2024/02/27 06:37:28;;;;;;;;;;;;;;;20.15;33.24;101218.47;4132712;28;19932;-60
2024/02/27 06:39:30;;;;;;;;;;;;;;;20.15;32.99;101216.63;4132776;28;20016;-60
2024/02/27 06:41:31;;;;;;;;;;;;;;;20.16;33.09;101226.38;4132745;28;19958;-61
2024/02/27 06:43:33;;;;;;;;;;;;;;;20.16;33.16;101222.81;4132564;28;19926;-60
2024/02/27 06:45:35;;;;;;;;;;;;;;;20.10;32.80;101232.97;4132682;28;19996;-61
2024/02/27 06:47:37;;;;;;;;;;;;;;;20.11;33.14;101231.16;4132525;28;19933;-60
2024/02/27 06:49:43;;;;;;;;;;;;;;;20.13;33.11;101242.56;4132244;28;20021;-60
2024/02/27 06:51:50;;;;;;;;;;;;;;;20.07;32.97;101235.00;4132813;28;20017;-61
2024/02/27 06:53:52;;;;;;;;;;;;;;;20.07;33.04;101240.31;4115226;28;20360;-61
2024/02/27 06:55:54;;;;;;;;;;;;;;;20.08;33.06;101244.72;4132553;28;19926;-61
2024/02/27 06:57:55;;;;;;;;;;;;;;;20.10;33.18;101245.47;4132625;28;20012;-59
2024/02/27 06:59:58;;;;;;;;;;;;;;;20.10;33.12;101258.81;4132617;28;19980;-60
2024/02/27 07:02:06;;;;;;;;;;;;;;;20.10;32.88;101251.66;4132365;28;20283;-62
2024/02/27 07:04:12;;;;;;;;;;;;;;;20.10;33.21;101245.47;4132524;28;20471;-60
2024/02/27 07:06:14;;;;;;;;;;;;;;;20.07;33.05;101254.56;4132317;28;19929;-60
2024/02/27 07:08:15;;;;;;;;;;;;;;;20.09;33.15;101241.09;4132139;28;19930;-60
2024/02/27 07:10:17;;;;;;;;;;;;;;;20.10;33.24;101253.50;4132483;28;19930;-62
2024/02/27 07:12:19;;;;;;;;;;;;;;;20.11;33.21;101253.38;4132431;28;19965;-61
2024/02/27 07:14:20;;;;;;;;;;;;;;;20.13;33.08;101261.28;4132583;28;19970;-60
2024/02/27 07:16:22;;;;;;;;;;;;;;;20.11;33.12;101258.72;4132224;28;19929;-60
2024/02/27 07:18:24;;;;;;;;;;;;;;;20.13;33.16;101265.78;4114893;28;20086;-60
2024/02/27 07:20:26;;;;;;;;;;;;;;;20.15;32.93;101266.53;4132037;28;19972;-61
2024/02/27 07:22:28;;;;;;;;;;;;;;;20.13;32.86;101268.44;4131874;28;20387;-60
2024/02/27 07:24:35;;;;;;;;;;;;;;;20.12;32.91;101262.22;4131995;28;20104;-60
2024/02/27 07:26:36;;;;;;;;;;;;;;;20.11;33.08;101266.72;4132166;28;20367;-61
2024/02/27 07:28:38;;;;;;;;;;;;;;;20.12;33.17;101267.56;4114772;28;19957;-60
2024/02/27 07:30:39;;;;;;;;;;;;;;;20.11;33.08;101266.72;4132168;28;19961;-60
2024/02/27 07:32:42;;;;;;;;;;;;;;;20.13;32.86;101269.28;4131922;28;19925;-60
2024/02/27 07:34:46;;;;;;;;;;;;;;;20.13;33.08;101266.63;4131748;28;19977;-59
2024/02/27 07:36:48;;;;;;;;;;;;;;;20.13;33.08;101269.28;4131495;28;19926;-60
2024/02/27 07:38:51;;;;;;;;;;;;;;;20.14;33.11;101267.50;4131461;28;19934;-58
2024/02/27 07:40:52;;;;;;;;;;;;;;;20.15;33.06;101272.72;4132151;28;19989;-60
2024/02/27 07:42:54;;;;;;;;;;;;;;;20.16;33.09;101261.06;4131599;28;19930;-61
2024/02/27 07:44:55;;;;;;;;;;;;;;;20.15;32.86;101262.03;4131611;28;19930;-60
2024/02/27 07:46:57;;;;;;;;;;;;;;;20.15;32.90;101267.38;4114501;28;19926;-60
2024/02/27 07:48:59;;;;;;;;;;;;;;;20.14;32.84;101268.31;4131565;28;19987;-60
2024/02/27 07:51:00;;;;;;;;;;;;;;;20.15;32.85;101282.56;4131117;28;19932;-60
2024/02/27 07:53:02;;;;;;;;;;;;;;;20.14;32.72;101284.34;4131922;28;19926;-59
2024/02/27 07:55:04;;;;;;;;;;;;;;;20.13;32.82;101287.97;4131384;28;19976;-58
2024/02/27 07:57:06;;;;;;;;;;;;;;;20.15;32.70;101302.09;4131676;28;19937;-59
2024/02/27 07:59:07;;;;;;;;;;;;;;;20.17;33.04;101301.97;4114379;28;20282;-60
2024/02/27 08:01:09;;;;;;;;;;;;;;;20.17;32.95;101310.88;4130813;28;19926;-59
2024/02/27 08:03:13;;;;;;;;;;;;;;;20.16;32.97;101306.47;4131417;28;19934;-60
2024/02/27 08:05:15;;;;;;;;;;;;;;;20.04;33.08;101284.13;4131114;28;19929;-61
2024/02/27 08:07:17;;;;;;;;;;;;;;;20.17;32.99;101302.84;4114296;28;20447;-61
2024/02/27 08:09:19;;;;;;;;;;;;;;;20.16;32.95;101302.94;4131443;28;20271;-61
2024/02/27 08:11:21;;;;;;;;;;;;;;;20.17;33.08;101307.31;4131428;28;19933;-60
2024/02/27 08:13:23;;;;;;;;;;;;;;;20.17;33.03;101310.00;4131408;28;20292;-60
2024/02/27 08:15:24;;;;;;;;;;;;;;;20.17;32.99;101310.00;4131169;28;20069;-61
2024/02/27 08:17:26;;;;;;;;;;;;;;;20.18;32.84;101314.38;4131278;28;19979;-60
2024/02/27 08:19:28;;;;;;;;;;;;;;;20.15;32.79;101315.44;4130965;28;20016;-61
2024/02/27 08:21:30;;;;;;;;;;;;;;;20.17;33.03;101321.56;4131492;28;20005;-60
2024/02/27 08:23:32;;;;;;;;;;;;;;;20.18;32.89;101322.41;4131262;28;19933;-60
2024/02/27 08:25:33;;;;;;;;;;;;;;;20.18;32.98;101325.06;4131196;28;19942;-61
2024/02/27 08:27:35;;;;;;;;;;;;;;;20.19;32.94;101327.63;4131157;28;19926;-61
2024/02/27 08:29:37;;;;;;;;;;;;;;;20.21;32.97;101325.72;4114355;28;20005;-61
2024/02/27 08:31:40;;;;;;;;;;;;;;;20.20;32.92;101329.34;4131185;28;19926;-60
2024/02/27 08:33:41;;;;;;;;;;;;;;;20.21;32.69;101330.22;4130754;28;19932;-60
2024/02/27 08:35:43;;;;;;;;;;;;;;;20.21;32.97;101320.38;4131289;28;20009;-60
2024/02/27 08:37:45;;;;;;;;;;;;;;;20.20;33.04;101328.50;4131282;28;19984;-60
2024/02/27 08:39:46;;;;;;;;;;;;;;;20.20;32.98;101328.50;4131080;28;19936;-60
2024/02/27 08:41:48;;;;;;;;;;;;;;;20.20;32.81;101329.34;4131121;28;19933;-60
2024/02/27 08:43:49;;;;;;;;;;;;;;;20.19;32.65;101338.31;4131254;28;19925;-61
2024/02/27 08:45:51;;;;;;;;;;;;;;;20.19;32.98;101332.13;4131087;28;19933;-60
2024/02/27 08:47:52;;;;;;;;;;;;;;;20.17;32.82;101339.38;4131138;28;20363;-60
2024/02/27 08:49:54;;;;;;;;;;;;;;;20.19;32.90;101342.81;4130657;28;20304;-60
2024/02/27 08:51:56;;;;;;;;;;;;;;;20.20;32.82;101339.19;4131221;28;19961;-60
2024/02/27 08:53:57;;;;;;;;;;;;;;;20.20;33.00;101349.88;4131073;28;20410;-60
2024/02/27 08:55:59;;;;;;;;;;;;;;;20.19;32.70;101343.66;4113703;28;19926;-60
2024/02/27 08:58:00;;;;;;;;;;;;;;;20.21;33.04;101338.22;4131046;28;19925;-60
2024/02/27 09:00:06;;;;;;;;;;;;;;;20.21;32.87;101347.09;4131408;28;19964;-60
2024/02/27 09:02:07;;;;;;;;;;;;;;;20.23;32.58;101358.53;4131540;28;19926;-60
2024/02/27 09:04:09;;;;;;;;;;;;;;;20.24;32.69;101359.38;4131335;28;19933;-60
2024/02/27 09:06:11;;;;;;;;;;;;;;;20.19;32.71;101364.16;4131139;28;20403;-60
2024/02/27 09:08:14;;;;;;;;;;;;;;;20.21;32.94;101367.59;4131129;28;19932;-59
2024/02/27 09:10:17;;;;;;;;;;;;;;;20.20;32.94;101365.88;4131208;28;19929;-60
2024/02/27 09:12:18;;;;;;;;;;;;;;;20.19;32.73;101361.50;4131557;28;19929;-60
2024/02/27 09:14:22;;;;;;;;;;;;;;;20.18;32.78;101362.44;4134133;28;20024;-60
2024/02/27 09:16:23;;;;;;;;;;;;;;;20.17;32.53;101353.59;4134168;28;19933;-60
2024/02/27 09:18:25;;;;;;;;;;;;;;;20.17;32.66;101344.72;4133826;28;20323;-60
2024/02/27 09:20:30;;;;;;;;;;;;;;;20.20;32.92;101352.53;4133972;28;20344;-61
2024/02/27 09:22:34;;;;;;;;;;;;;;;20.19;32.64;101357.00;4134229;28;20277;-60
2024/02/27 09:24:36;;;;;;;;;;;;;;;20.21;32.54;101352.44;4134095;28;19925;-60
2024/02/27 09:26:37;;;;;;;;;;;;;;;20.22;32.61;101361.28;4133817;28;19926;-60
2024/02/27 09:28:39;;;;;;;;;;;;;;;20.22;32.85;101358.59;4133990;28;19929;-61
2024/02/27 09:30:41;;;;;;;;;;;;;;;20.21;32.89;101362.25;4133871;28;19977;-60
2024/02/27 09:32:43;;;;;;;;;;;;;;;20.20;32.66;101371.22;4133480;28;19926;-60
2024/02/27 09:34:44;;;;;;;;;;;;;;;20.10;32.53;101368.31;4133542;28;19925;-60
2024/02/27 09:36:46;;;;;;;;;;;;;;;20.13;32.69;101376.09;4133834;28;19933;-60
2024/02/27 09:38:47;;;;;;;;;;;;;;;20.14;32.42;101374.31;4133616;28;19964;-60
2024/02/27 09:40:54;;;;;;;;;;;;;;;20.14;32.91;101367.13;4133483;28;19925;-60
2024/02/27 09:43:00;;;;;;;;;;;;;;;20.15;32.71;101363.50;4133666;28;20454;-60
2024/02/27 09:45:07;;;;;;;;;;;;;;;20.17;32.68;101363.41;4133560;28;19984;-59
2024/02/27 09:47:13;;;;;;;;;;;;;;;20.19;32.70;101361.50;4132943;28;19926;-61
2024/02/27 09:49:15;;;;;;;;;;;;;;;20.20;32.53;101360.53;4133530;28;19933;-60
2024/02/27 09:51:33;;;;;;;;;;;;;;;20.20;32.75;101361.38;4133486;28;19977;-60
2024/02/27 09:53:35;;;;;;;;;;;;;;;20.20;32.66;101360.53;4133560;28;19981;-60
2024/02/27 09:55:37;;;;;;;;;;;;;;;20.19;32.53;101369.50;4133627;28;19940;-60
2024/02/27 09:57:40;;;;;;;;;;;;;;;20.18;32.39;101367.78;4133533;28;19926;-60
2024/02/27 09:59:41;;;;;;;;;;;;;;;20.18;32.47;101370.47;4133401;28;20016;-59
2024/02/27 10:01:45;;;;;;;;;;;;;;;20.18;32.71;101371.31;4133123;28;19925;-59
2024/02/27 10:03:47;;;;;;;;;;;;;;;20.18;32.50;101367.78;4133321;28;19930;-60
2024/02/27 10:05:50;;;;;;;;;;;;;;;20.17;32.67;101377.63;4133174;28;19981;-60
2024/02/27 10:07:51;;;;;;;;;;;;;;;20.17;32.64;101374.09;4133151;28;20014;-58
2024/02/27 10:09:58;;;;;;;;;;;;;;;20.19;32.71;101374.84;4133267;28;19993;-59
2024/02/27 10:12:00;;;;;;;;;;;;;;;20.20;32.60;101381.91;4133414;28;19932;-60
2024/02/27 10:14:02;;;;;;;;;;;;;;;20.20;32.57;101379.25;4133223;28;19972;-60
2024/02/27 10:16:03;;;;;;;;;;;;;;;20.20;32.65;101380.09;4132955;28;20306;-60
2024/02/27 10:18:10;;;;;;;;;;;;;;;20.22;32.79;101382.66;4133228;28;19973;-59
2024/02/27 10:20:12;;;;;;;;;;;;;;;20.22;32.65;101383.53;4133073;28;19925;-59
2024/02/27 10:22:13;;;;;;;;;;;;;;;20.21;32.81;101380.97;4133295;28;19925;-59
2024/02/27 10:24:21;;;;;;;;;;;;;;;20.21;32.71;101371.13;4115272;28;19926;-59
2024/02/27 10:26:23;;;;;;;;;;;;;;;20.22;32.71;101382.66;4132843;28;19930;-60
2024/02/27 10:28:24;;;;;;;;;;;;;;;20.21;32.53;101376.47;4132785;28;19937;-59